sensor_id;sensor_type;location;lat;lon;timestamp;P1;durP1;ratioP1;P2;durP2;ratioP2
12367;SDS011;6248;49.812;6.620;2023-05-10T00:00:33;4.32;;;3.72;;
12367;SDS011;6248;49.812;6.620;2023-05-10T00:03:02;3.00;;;2.80;;
12367;SDS011;6248;49.812;6.620;2023-05-10T00:05:30;4.50;;;4.20;;
12367;SDS011;6248;49.812;6.620;2023-05-10T00:07:57;4.82;;;4.43;;
12367;SDS011;6248;49.812;6.620;2023-05-10T00:10:24;5.80;;;4.57;;
12367;SDS011;6248;49.812;6.620;2023-05-10T00:12:51;4.13;;;3.83;;
12367;SDS011;6248;49.812;6.620;2023-05-10T00:15:18;4.20;;;3.90;;
12367;SDS011;6248;49.812;6.620;2023-05-10T00:17:45;5.07;;;4.68;;
12367;SDS011;6248;49.812;6.620;2023-05-10T00:20:14;5.30;;;4.80;;
12367;SDS011;6248;49.812;6.620;2023-05-10T00:22:41;4.85;;;4.45;;
12367;SDS011;6248;49.812;6.620;2023-05-10T00:25:08;5.20;;;4.70;;
12367;SDS011;6248;49.812;6.620;2023-05-10T00:27:36;4.50;;;3.60;;
12367;SDS011;6248;49.812;6.620;2023-05-10T00:30:03;6.57;;;4.68;;
12367;SDS011;6248;49.812;6.620;2023-05-10T00:32:31;4.63;;;4.22;;
12367;SDS011;6248;49.812;6.620;2023-05-10T00:34:58;4.60;;;4.18;;
12367;SDS011;6248;49.812;6.620;2023-05-10T00:37:26;4.47;;;4.18;;
12367;SDS011;6248;49.812;6.620;2023-05-10T00:39:54;5.00;;;4.60;;
12367;SDS011;6248;49.812;6.620;2023-05-10T00:42:21;4.63;;;4.32;;
12367;SDS011;6248;49.812;6.620;2023-05-10T00:44:48;3.80;;;3.55;;
12367;SDS011;6248;49.812;6.620;2023-05-10T00:47:15;4.10;;;3.70;;
12367;SDS011;6248;49.812;6.620;2023-05-10T00:49:43;4.70;;;4.30;;
12367;SDS011;6248;49.812;6.620;2023-05-10T00:52:10;4.25;;;3.95;;
12367;SDS011;6248;49.812;6.620;2023-05-10T00:54:39;4.35;;;4.05;;
12367;SDS011;6248;49.812;6.620;2023-05-10T00:57:06;5.10;;;3.90;;
12367;SDS011;6248;49.812;6.620;2023-05-10T00:59:33;5.00;;;4.50;;
12367;SDS011;6248;49.812;6.620;2023-05-10T01:02:00;5.50;;;4.20;;
12367;SDS011;6248;49.812;6.620;2023-05-10T01:04:28;5.32;;;4.50;;
12367;SDS011;6248;49.812;6.620;2023-05-10T01:06:55;4.60;;;4.20;;
12367;SDS011;6248;49.812;6.620;2023-05-10T01:09:22;4.97;;;4.20;;
12367;SDS011;6248;49.812;6.620;2023-05-10T01:11:53;5.25;;;4.63;;
12367;SDS011;6248;49.812;6.620;2023-05-10T01:14:21;5.78;;;4.45;;
12367;SDS011;6248;49.812;6.620;2023-05-10T01:16:48;5.22;;;4.68;;
12367;SDS011;6248;49.812;6.620;2023-05-10T01:19:17;4.93;;;4.55;;
12367;SDS011;6248;49.812;6.620;2023-05-10T01:21:48;6.00;;;5.40;;
12367;SDS011;6248;49.812;6.620;2023-05-10T01:24:25;5.23;;;4.73;;
12367;SDS011;6248;49.812;6.620;2023-05-10T01:27:01;4.73;;;4.33;;
12367;SDS011;6248;49.812;6.620;2023-05-10T01:32:28;6.38;;;4.72;;
12367;SDS011;6248;49.812;6.620;2023-05-10T01:34:59;6.77;;;5.53;;
12367;SDS011;6248;49.812;6.620;2023-05-10T01:37:30;4.95;;;4.55;;
12367;SDS011;6248;49.812;6.620;2023-05-10T01:40:00;5.72;;;4.88;;
12367;SDS011;6248;49.812;6.620;2023-05-10T01:42:29;5.43;;;5.03;;
12367;SDS011;6248;49.812;6.620;2023-05-10T01:45:00;7.38;;;5.38;;
12367;SDS011;6248;49.812;6.620;2023-05-10T01:47:31;6.20;;;5.37;;
12367;SDS011;6248;49.812;6.620;2023-05-10T01:50:01;6.10;;;5.60;;
12367;SDS011;6248;49.812;6.620;2023-05-10T01:52:30;7.87;;;5.53;;
12367;SDS011;6248;49.812;6.620;2023-05-10T01:54:59;8.97;;;4.83;;
12367;SDS011;6248;49.812;6.620;2023-05-10T01:57:30;9.43;;;5.80;;
12367;SDS011;6248;49.812;6.620;2023-05-10T01:59:59;5.70;;;5.20;;
12367;SDS011;6248;49.812;6.620;2023-05-10T02:02:28;6.95;;;5.70;;
12367;SDS011;6248;49.812;6.620;2023-05-10T02:04:57;6.25;;;5.75;;
12367;SDS011;6248;49.812;6.620;2023-05-10T02:07:26;6.97;;;6.25;;
12367;SDS011;6248;49.812;6.620;2023-05-10T02:09:53;8.63;;;6.30;;
12367;SDS011;6248;49.812;6.620;2023-05-10T02:12:22;7.13;;;6.43;;
12367;SDS011;6248;49.812;6.620;2023-05-10T02:14:50;8.43;;;7.50;;
12367;SDS011;6248;49.812;6.620;2023-05-10T02:17:18;8.32;;;6.93;;
12367;SDS011;6248;49.812;6.620;2023-05-10T02:19:45;7.05;;;6.35;;
12367;SDS011;6248;49.812;6.620;2023-05-10T02:22:14;8.80;;;7.50;;
12367;SDS011;6248;49.812;6.620;2023-05-10T02:24:42;7.03;;;6.43;;
12367;SDS011;6248;49.812;6.620;2023-05-10T02:27:10;7.00;;;6.30;;
12367;SDS011;6248;49.812;6.620;2023-05-10T02:29:38;5.70;;;5.20;;
12367;SDS011;6248;49.812;6.620;2023-05-10T02:32:05;7.97;;;7.17;;
12367;SDS011;6248;49.812;6.620;2023-05-10T02:34:33;9.27;;;6.43;;
12367;SDS011;6248;49.812;6.620;2023-05-10T02:37:00;6.18;;;5.63;;
12367;SDS011;6248;49.812;6.620;2023-05-10T02:39:30;5.77;;;5.27;;
12367;SDS011;6248;49.812;6.620;2023-05-10T02:41:58;5.93;;;5.20;;
12367;SDS011;6248;49.812;6.620;2023-05-10T02:44:27;5.93;;;5.00;;
12367;SDS011;6248;49.812;6.620;2023-05-10T02:46:56;5.32;;;4.82;;
12367;SDS011;6248;49.812;6.620;2023-05-10T02:49:23;6.80;;;4.93;;
12367;SDS011;6248;49.812;6.620;2023-05-10T02:51:51;5.85;;;4.50;;
12367;SDS011;6248;49.812;6.620;2023-05-10T02:54:21;5.77;;;4.50;;
12367;SDS011;6248;49.812;6.620;2023-05-10T02:56:53;4.90;;;3.77;;
12367;SDS011;6248;49.812;6.620;2023-05-10T02:59:23;6.38;;;4.30;;
12367;SDS011;6248;49.812;6.620;2023-05-10T03:01:50;6.00;;;4.37;;
12367;SDS011;6248;49.812;6.620;2023-05-10T03:04:17;6.13;;;4.15;;
12367;SDS011;6248;49.812;6.620;2023-05-10T03:06:45;5.73;;;4.40;;
12367;SDS011;6248;49.812;6.620;2023-05-10T03:09:12;4.18;;;3.78;;
12367;SDS011;6248;49.812;6.620;2023-05-10T03:11:43;4.07;;;3.67;;
12367;SDS011;6248;49.812;6.620;2023-05-10T03:14:23;5.47;;;4.40;;
12367;SDS011;6248;49.812;6.620;2023-05-10T03:16:56;5.80;;;4.07;;
12367;SDS011;6248;49.812;6.620;2023-05-10T03:19:24;3.63;;;3.33;;
12367;SDS011;6248;49.812;6.620;2023-05-10T03:21:53;6.30;;;4.43;;
12367;SDS011;6248;49.812;6.620;2023-05-10T03:24:21;4.43;;;3.37;;
12367;SDS011;6248;49.812;6.620;2023-05-10T03:26:49;4.83;;;3.77;;
12367;SDS011;6248;49.812;6.620;2023-05-10T03:29:17;5.40;;;4.90;;
12367;SDS011;6248;49.812;6.620;2023-05-10T03:31:45;6.83;;;5.13;;
12367;SDS011;6248;49.812;6.620;2023-05-10T03:34:12;5.50;;;4.55;;
12367;SDS011;6248;49.812;6.620;2023-05-10T03:36:39;3.95;;;3.58;;
12367;SDS011;6248;49.812;6.620;2023-05-10T03:39:06;5.37;;;3.73;;
12367;SDS011;6248;49.812;6.620;2023-05-10T03:41:35;3.80;;;3.50;;
12367;SDS011;6248;49.812;6.620;2023-05-10T03:44:02;4.72;;;4.13;;
12367;SDS011;6248;49.812;6.620;2023-05-10T03:46:30;6.05;;;4.63;;
12367;SDS011;6248;49.812;6.620;2023-05-10T03:48:58;3.92;;;3.55;;
12367;SDS011;6248;49.812;6.620;2023-05-10T03:51:25;3.80;;;3.50;;
12367;SDS011;6248;49.812;6.620;2023-05-10T03:53:53;4.97;;;4.47;;
12367;SDS011;6248;49.812;6.620;2023-05-10T03:56:20;4.47;;;3.63;;
12367;SDS011;6248;49.812;6.620;2023-05-10T03:58:47;6.35;;;5.30;;
12367;SDS011;6248;49.812;6.620;2023-05-10T04:01:14;3.90;;;3.58;;
12367;SDS011;6248;49.812;6.620;2023-05-10T04:03:43;4.95;;;4.47;;
12367;SDS011;6248;49.812;6.620;2023-05-10T04:06:10;5.97;;;4.20;;
12367;SDS011;6248;49.812;6.620;2023-05-10T04:08:37;7.68;;;4.78;;
12367;SDS011;6248;49.812;6.620;2023-05-10T04:11:05;7.07;;;4.95;;
12367;SDS011;6248;49.812;6.620;2023-05-10T04:13:32;4.13;;;3.67;;
12367;SDS011;6248;49.812;6.620;2023-05-10T04:16:00;5.43;;;4.07;;
12367;SDS011;6248;49.812;6.620;2023-05-10T04:18:27;5.38;;;3.67;;
12367;SDS011;6248;49.812;6.620;2023-05-10T04:20:55;6.40;;;4.93;;
12367;SDS011;6248;49.812;6.620;2023-05-10T04:23:23;5.57;;;4.85;;
12367;SDS011;6248;49.812;6.620;2023-05-10T04:25:50;5.32;;;4.72;;
12367;SDS011;6248;49.812;6.620;2023-05-10T04:28:17;6.63;;;4.95;;
12367;SDS011;6248;49.812;6.620;2023-05-10T04:30:44;5.40;;;4.93;;
12367;SDS011;6248;49.812;6.620;2023-05-10T04:33:11;4.80;;;4.40;;
12367;SDS011;6248;49.812;6.620;2023-05-10T04:35:39;5.38;;;4.47;;
12367;SDS011;6248;49.812;6.620;2023-05-10T04:38:07;4.93;;;4.43;;
12367;SDS011;6248;49.812;6.620;2023-05-10T04:40:35;4.10;;;3.70;;
12367;SDS011;6248;49.812;6.620;2023-05-10T04:43:02;5.60;;;3.88;;
12367;SDS011;6248;49.812;6.620;2023-05-10T04:45:31;4.28;;;3.88;;
12367;SDS011;6248;49.812;6.620;2023-05-10T04:47:59;5.85;;;4.40;;
12367;SDS011;6248;49.812;6.620;2023-05-10T04:50:27;5.88;;;5.15;;
12367;SDS011;6248;49.812;6.620;2023-05-10T04:52:54;6.13;;;5.53;;
12367;SDS011;6248;49.812;6.620;2023-05-10T04:55:23;6.00;;;5.50;;
12367;SDS011;6248;49.812;6.620;2023-05-10T04:57:51;6.60;;;5.13;;
12367;SDS011;6248;49.812;6.620;2023-05-10T05:00:20;6.45;;;4.93;;
12367;SDS011;6248;49.812;6.620;2023-05-10T05:02:47;5.07;;;4.60;;
12367;SDS011;6248;49.812;6.620;2023-05-10T05:05:15;4.38;;;3.97;;
12367;SDS011;6248;49.812;6.620;2023-05-10T05:07:42;4.53;;;4.03;;
12367;SDS011;6248;49.812;6.620;2023-05-10T05:10:10;4.40;;;4.00;;
12367;SDS011;6248;49.812;6.620;2023-05-10T05:12:39;4.10;;;3.70;;
12367;SDS011;6248;49.812;6.620;2023-05-10T05:15:07;3.83;;;3.33;;
12367;SDS011;6248;49.812;6.620;2023-05-10T05:17:34;3.33;;;2.70;;
12367;SDS011;6248;49.812;6.620;2023-05-10T05:20:02;3.50;;;2.78;;
12367;SDS011;6248;49.812;6.620;2023-05-10T05:22:29;2.88;;;2.67;;
12367;SDS011;6248;49.812;6.620;2023-05-10T05:24:57;2.40;;;2.20;;
12367;SDS011;6248;49.812;6.620;2023-05-10T05:27:24;2.00;;;1.90;;
12367;SDS011;6248;49.812;6.620;2023-05-10T05:29:54;2.00;;;1.90;;
12367;SDS011;6248;49.812;6.620;2023-05-10T05:32:21;2.10;;;1.90;;
12367;SDS011;6248;49.812;6.620;2023-05-10T05:34:49;1.88;;;1.77;;
12367;SDS011;6248;49.812;6.620;2023-05-10T05:37:17;3.35;;;1.90;;
12367;SDS011;6248;49.812;6.620;2023-05-10T05:39:44;2.83;;;1.90;;
12367;SDS011;6248;49.812;6.620;2023-05-10T05:42:12;3.45;;;1.60;;
12367;SDS011;6248;49.812;6.620;2023-05-10T05:44:41;3.42;;;1.42;;
12367;SDS011;6248;49.812;6.620;2023-05-10T05:47:10;2.58;;;1.40;;
12367;SDS011;6248;49.812;6.620;2023-05-10T05:49:38;1.17;;;1.10;;
12367;SDS011;6248;49.812;6.620;2023-05-10T05:52:05;1.25;;;1.15;;
12367;SDS011;6248;49.812;6.620;2023-05-10T05:54:32;1.10;;;1.10;;
12367;SDS011;6248;49.812;6.620;2023-05-10T05:57:00;0.95;;;0.95;;
12367;SDS011;6248;49.812;6.620;2023-05-10T05:59:27;1.15;;;1.05;;
12367;SDS011;6248;49.812;6.620;2023-05-10T06:01:55;1.05;;;0.98;;
12367;SDS011;6248;49.812;6.620;2023-05-10T06:04:23;1.10;;;1.00;;
12367;SDS011;6248;49.812;6.620;2023-05-10T06:06:51;0.90;;;0.90;;
12367;SDS011;6248;49.812;6.620;2023-05-10T06:09:18;0.90;;;0.90;;
12367;SDS011;6248;49.812;6.620;2023-05-10T06:11:45;1.02;;;0.95;;
12367;SDS011;6248;49.812;6.620;2023-05-10T06:14:12;1.00;;;1.00;;
12367;SDS011;6248;49.812;6.620;2023-05-10T06:16:41;4.03;;;1.20;;
12367;SDS011;6248;49.812;6.620;2023-05-10T06:19:09;0.90;;;0.90;;
12367;SDS011;6248;49.812;6.620;2023-05-10T06:21:37;1.17;;;1.08;;
12367;SDS011;6248;49.812;6.620;2023-05-10T06:24:05;0.75;;;0.75;;
12367;SDS011;6248;49.812;6.620;2023-05-10T06:26:32;0.70;;;0.70;;
12367;SDS011;6248;49.812;6.620;2023-05-10T06:29:00;1.13;;;0.70;;
12367;SDS011;6248;49.812;6.620;2023-05-10T06:31:27;0.85;;;0.77;;
12367;SDS011;6248;49.812;6.620;2023-05-10T06:33:55;0.90;;;0.90;;
12367;SDS011;6248;49.812;6.620;2023-05-10T06:36:22;0.50;;;0.50;;
12367;SDS011;6248;49.812;6.620;2023-05-10T06:38:52;1.30;;;0.70;;
12367;SDS011;6248;49.812;6.620;2023-05-10T06:41:20;0.60;;;0.60;;
12367;SDS011;6248;49.812;6.620;2023-05-10T06:43:47;1.10;;;0.55;;
12367;SDS011;6248;49.812;6.620;2023-05-10T06:46:14;0.60;;;0.60;;
12367;SDS011;6248;49.812;6.620;2023-05-10T06:48:41;0.60;;;0.60;;
12367;SDS011;6248;49.812;6.620;2023-05-10T06:51:09;0.95;;;0.60;;
12367;SDS011;6248;49.812;6.620;2023-05-10T06:53:36;3.10;;;0.70;;
12367;SDS011;6248;49.812;6.620;2023-05-10T06:56:05;1.02;;;0.80;;
12367;SDS011;6248;49.812;6.620;2023-05-10T06:58:33;0.70;;;0.70;;
12367;SDS011;6248;49.812;6.620;2023-05-10T07:01:05;1.17;;;0.60;;
12367;SDS011;6248;49.812;6.620;2023-05-10T07:03:32;1.50;;;1.00;;
12367;SDS011;6248;49.812;6.620;2023-05-10T07:06:00;1.27;;;0.75;;
12367;SDS011;6248;49.812;6.620;2023-05-10T07:08:29;1.63;;;0.80;;
12367;SDS011;6248;49.812;6.620;2023-05-10T07:11:00;1.58;;;0.70;;
12367;SDS011;6248;49.812;6.620;2023-05-10T07:13:29;1.98;;;0.90;;
12367;SDS011;6248;49.812;6.620;2023-05-10T07:15:57;0.80;;;0.80;;
12367;SDS011;6248;49.812;6.620;2023-05-10T07:18:24;2.60;;;1.00;;
12367;SDS011;6248;49.812;6.620;2023-05-10T07:20:52;0.90;;;0.90;;
12367;SDS011;6248;49.812;6.620;2023-05-10T07:23:19;0.80;;;0.80;;
12367;SDS011;6248;49.812;6.620;2023-05-10T07:25:47;1.75;;;0.90;;
12367;SDS011;6248;49.812;6.620;2023-05-10T07:28:14;1.13;;;0.70;;
12367;SDS011;6248;49.812;6.620;2023-05-10T07:30:43;1.02;;;0.90;;
12367;SDS011;6248;49.812;6.620;2023-05-10T07:33:13;1.42;;;0.80;;
12367;SDS011;6248;49.812;6.620;2023-05-10T07:35:41;2.28;;;0.82;;
12367;SDS011;6248;49.812;6.620;2023-05-10T07:38:09;4.13;;;0.80;;
12367;SDS011;6248;49.812;6.620;2023-05-10T07:40:37;0.63;;;0.63;;
12367;SDS011;6248;49.812;6.620;2023-05-10T07:43:07;1.15;;;0.80;;
12367;SDS011;6248;49.812;6.620;2023-05-10T07:45:37;0.70;;;0.70;;
12367;SDS011;6248;49.812;6.620;2023-05-10T07:48:13;0.82;;;0.63;;
12367;SDS011;6248;49.812;6.620;2023-05-10T07:50:42;0.70;;;0.60;;
12367;SDS011;6248;49.812;6.620;2023-05-10T07:53:10;0.75;;;0.70;;
12367;SDS011;6248;49.812;6.620;2023-05-10T07:55:37;0.80;;;0.80;;
12367;SDS011;6248;49.812;6.620;2023-05-10T07:58:04;1.02;;;0.63;;
12367;SDS011;6248;49.812;6.620;2023-05-10T08:00:32;0.60;;;0.60;;
12367;SDS011;6248;49.812;6.620;2023-05-10T08:02:59;0.85;;;0.75;;
12367;SDS011;6248;49.812;6.620;2023-05-10T08:05:28;2.55;;;0.82;;
12367;SDS011;6248;49.812;6.620;2023-05-10T08:07:57;0.93;;;0.93;;
12367;SDS011;6248;49.812;6.620;2023-05-10T08:10:25;0.70;;;0.70;;
12367;SDS011;6248;49.812;6.620;2023-05-10T08:12:52;0.90;;;0.80;;
12367;SDS011;6248;49.812;6.620;2023-05-10T08:15:19;1.20;;;0.70;;
12367;SDS011;6248;49.812;6.620;2023-05-10T08:17:46;2.05;;;0.80;;
12367;SDS011;6248;49.812;6.620;2023-05-10T08:20:13;0.80;;;0.80;;
12367;SDS011;6248;49.812;6.620;2023-05-10T08:22:47;0.80;;;0.70;;
12367;SDS011;6248;49.812;6.620;2023-05-10T08:25:14;0.90;;;0.90;;
12367;SDS011;6248;49.812;6.620;2023-05-10T08:27:42;0.95;;;0.82;;
12367;SDS011;6248;49.812;6.620;2023-05-10T08:30:10;1.92;;;0.80;;
12367;SDS011;6248;49.812;6.620;2023-05-10T08:32:38;1.20;;;1.10;;
12367;SDS011;6248;49.812;6.620;2023-05-10T08:35:05;0.93;;;0.90;;
12367;SDS011;6248;49.812;6.620;2023-05-10T08:37:32;2.08;;;1.02;;
12367;SDS011;6248;49.812;6.620;2023-05-10T08:40:01;0.85;;;0.85;;
12367;SDS011;6248;49.812;6.620;2023-05-10T08:42:29;1.10;;;1.00;;
12367;SDS011;6248;49.812;6.620;2023-05-10T08:44:57;0.88;;;0.82;;
12367;SDS011;6248;49.812;6.620;2023-05-10T08:47:26;0.85;;;0.77;;
12367;SDS011;6248;49.812;6.620;2023-05-10T08:49:53;1.15;;;0.70;;
12367;SDS011;6248;49.812;6.620;2023-05-10T08:52:21;0.90;;;0.90;;
12367;SDS011;6248;49.812;6.620;2023-05-10T08:54:50;0.90;;;0.90;;
12367;SDS011;6248;49.812;6.620;2023-05-10T08:57:25;0.90;;;0.90;;
12367;SDS011;6248;49.812;6.620;2023-05-10T08:59:53;1.60;;;1.00;;
12367;SDS011;6248;49.812;6.620;2023-05-10T09:02:21;1.20;;;0.90;;
12367;SDS011;6248;49.812;6.620;2023-05-10T09:04:53;0.90;;;0.70;;
12367;SDS011;6248;49.812;6.620;2023-05-10T09:07:21;0.80;;;0.80;;
12367;SDS011;6248;49.812;6.620;2023-05-10T09:09:53;0.85;;;0.60;;
12367;SDS011;6248;49.812;6.620;2023-05-10T09:12:22;0.90;;;0.60;;
12367;SDS011;6248;49.812;6.620;2023-05-10T09:14:51;0.70;;;0.70;;
12367;SDS011;6248;49.812;6.620;2023-05-10T09:17:21;0.73;;;0.73;;
12367;SDS011;6248;49.812;6.620;2023-05-10T09:19:56;0.80;;;0.80;;
12367;SDS011;6248;49.812;6.620;2023-05-10T09:22:25;0.80;;;0.80;;
12367;SDS011;6248;49.812;6.620;2023-05-10T09:25:03;1.17;;;1.00;;
12367;SDS011;6248;49.812;6.620;2023-05-10T09:27:38;2.05;;;1.13;;
12367;SDS011;6248;49.812;6.620;2023-05-10T09:30:08;1.35;;;0.90;;
12367;SDS011;6248;49.812;6.620;2023-05-10T09:32:40;1.75;;;1.27;;
12367;SDS011;6248;49.812;6.620;2023-05-10T09:35:08;1.20;;;1.20;;
12367;SDS011;6248;49.812;6.620;2023-05-10T09:37:46;2.80;;;1.20;;
12367;SDS011;6248;49.812;6.620;2023-05-10T09:40:15;1.50;;;1.38;;
12367;SDS011;6248;49.812;6.620;2023-05-10T09:42:50;1.33;;;0.90;;
12367;SDS011;6248;49.812;6.620;2023-05-10T09:45:20;0.82;;;0.82;;
12367;SDS011;6248;49.812;6.620;2023-05-10T09:47:48;1.27;;;1.00;;
12367;SDS011;6248;49.812;6.620;2023-05-10T09:50:16;2.20;;;1.00;;
12367;SDS011;6248;49.812;6.620;2023-05-10T09:52:47;1.48;;;1.30;;
12367;SDS011;6248;49.812;6.620;2023-05-10T09:55:25;1.35;;;1.23;;
12367;SDS011;6248;49.812;6.620;2023-05-10T09:57:58;1.17;;;1.17;;
12367;SDS011;6248;49.812;6.620;2023-05-10T10:00:33;2.17;;;1.40;;
12367;SDS011;6248;49.812;6.620;2023-05-10T10:03:02;1.42;;;1.30;;
12367;SDS011;6248;49.812;6.620;2023-05-10T10:05:32;1.60;;;1.45;;
12367;SDS011;6248;49.812;6.620;2023-05-10T10:08:13;2.90;;;1.70;;
12367;SDS011;6248;49.812;6.620;2023-05-10T10:10:41;1.73;;;1.63;;
12367;SDS011;6248;49.812;6.620;2023-05-10T10:13:13;3.88;;;1.67;;
12367;SDS011;6248;49.812;6.620;2023-05-10T10:15:43;1.80;;;1.52;;
12367;SDS011;6248;49.812;6.620;2023-05-10T10:18:12;1.88;;;1.77;;
12367;SDS011;6248;49.812;6.620;2023-05-10T10:20:40;2.58;;;1.83;;
12367;SDS011;6248;49.812;6.620;2023-05-10T10:23:08;2.17;;;1.80;;
12367;SDS011;6248;49.812;6.620;2023-05-10T10:25:35;2.30;;;1.63;;
12367;SDS011;6248;49.812;6.620;2023-05-10T10:28:07;5.07;;;1.83;;
12367;SDS011;6248;49.812;6.620;2023-05-10T10:30:37;4.13;;;1.88;;
12367;SDS011;6248;49.812;6.620;2023-05-10T10:33:13;3.45;;;1.70;;
12367;SDS011;6248;49.812;6.620;2023-05-10T10:35:45;3.45;;;1.63;;
12367;SDS011;6248;49.812;6.620;2023-05-10T10:38:12;2.72;;;1.80;;
12367;SDS011;6248;49.812;6.620;2023-05-10T10:40:39;3.13;;;1.90;;
12367;SDS011;6248;49.812;6.620;2023-05-10T10:46:09;3.22;;;1.80;;
12367;SDS011;6248;49.812;6.620;2023-05-10T10:48:39;3.63;;;1.92;;
12367;SDS011;6248;49.812;6.620;2023-05-10T10:51:06;6.75;;;2.13;;
12367;SDS011;6248;49.812;6.620;2023-05-10T10:53:33;2.25;;;1.83;;
12367;SDS011;6248;49.812;6.620;2023-05-10T10:56:07;1.80;;;1.50;;
12367;SDS011;6248;49.812;6.620;2023-05-10T10:58:35;1.73;;;1.63;;
12367;SDS011;6248;49.812;6.620;2023-05-10T11:01:10;4.15;;;2.15;;
12367;SDS011;6248;49.812;6.620;2023-05-10T11:03:39;3.10;;;1.80;;
12367;SDS011;6248;49.812;6.620;2023-05-10T11:06:06;2.75;;;1.70;;
12367;SDS011;6248;49.812;6.620;2023-05-10T11:08:34;3.92;;;1.80;;
12367;SDS011;6248;49.812;6.620;2023-05-10T11:11:03;4.88;;;1.90;;
12367;SDS011;6248;49.812;6.620;2023-05-10T11:13:32;3.20;;;1.90;;
12367;SDS011;6248;49.812;6.620;2023-05-10T11:16:09;6.63;;;2.05;;
12367;SDS011;6248;49.812;6.620;2023-05-10T11:18:36;3.90;;;1.70;;
12367;SDS011;6248;49.812;6.620;2023-05-10T11:21:07;3.35;;;1.90;;
12367;SDS011;6248;49.812;6.620;2023-05-10T11:23:47;2.38;;;1.60;;
12367;SDS011;6248;49.812;6.620;2023-05-10T11:26:14;1.80;;;1.52;;
12367;SDS011;6248;49.812;6.620;2023-05-10T11:28:42;5.38;;;1.73;;
12367;SDS011;6248;49.812;6.620;2023-05-10T11:31:09;3.15;;;1.92;;
12367;SDS011;6248;49.812;6.620;2023-05-10T11:33:42;4.38;;;1.63;;
12367;SDS011;6248;49.812;6.620;2023-05-10T11:36:12;3.67;;;1.55;;
12367;SDS011;6248;49.812;6.620;2023-05-10T11:38:39;4.13;;;1.80;;
12367;SDS011;6248;49.812;6.620;2023-05-10T11:41:07;5.05;;;2.10;;
12367;SDS011;6248;49.812;6.620;2023-05-10T11:43:36;2.72;;;1.45;;
12367;SDS011;6248;49.812;6.620;2023-05-10T11:46:04;3.97;;;1.70;;
12367;SDS011;6248;49.812;6.620;2023-05-10T11:48:31;2.38;;;1.30;;
12367;SDS011;6248;49.812;6.620;2023-05-10T11:51:00;3.25;;;1.60;;
12367;SDS011;6248;49.812;6.620;2023-05-10T11:53:29;2.15;;;1.38;;
12367;SDS011;6248;49.812;6.620;2023-05-10T11:56:02;3.70;;;1.33;;
12367;SDS011;6248;49.812;6.620;2023-05-10T11:58:30;2.45;;;1.25;;
12367;SDS011;6248;49.812;6.620;2023-05-10T12:00:57;4.10;;;1.63;;
12367;SDS011;6248;49.812;6.620;2023-05-10T12:03:24;3.08;;;1.55;;
12367;SDS011;6248;49.812;6.620;2023-05-10T12:05:52;4.05;;;1.23;;
12367;SDS011;6248;49.812;6.620;2023-05-10T12:08:20;3.65;;;1.60;;
12367;SDS011;6248;49.812;6.620;2023-05-10T12:10:49;5.05;;;1.30;;
12367;SDS011;6248;49.812;6.620;2023-05-10T12:13:16;4.43;;;1.27;;
12367;SDS011;6248;49.812;6.620;2023-05-10T12:15:43;2.25;;;1.27;;
12367;SDS011;6248;49.812;6.620;2023-05-10T12:18:11;2.88;;;1.40;;
12367;SDS011;6248;49.812;6.620;2023-05-10T12:20:38;2.10;;;1.10;;
12367;SDS011;6248;49.812;6.620;2023-05-10T12:23:07;2.78;;;1.20;;
12367;SDS011;6248;49.812;6.620;2023-05-10T12:25:35;2.03;;;1.20;;
12367;SDS011;6248;49.812;6.620;2023-05-10T12:28:04;1.70;;;1.00;;
12367;SDS011;6248;49.812;6.620;2023-05-10T12:30:32;2.70;;;1.30;;
12367;SDS011;6248;49.812;6.620;2023-05-10T12:33:00;2.25;;;1.13;;
12367;SDS011;6248;49.812;6.620;2023-05-10T12:35:30;3.40;;;1.30;;
12367;SDS011;6248;49.812;6.620;2023-05-10T12:37:57;1.90;;;1.17;;
12367;SDS011;6248;49.812;6.620;2023-05-10T12:40:24;1.92;;;1.20;;
12367;SDS011;6248;49.812;6.620;2023-05-10T12:42:51;2.03;;;1.20;;
12367;SDS011;6248;49.812;6.620;2023-05-10T12:45:20;2.45;;;1.50;;
12367;SDS011;6248;49.812;6.620;2023-05-10T12:47:47;2.05;;;1.80;;
12367;SDS011;6248;49.812;6.620;2023-05-10T12:50:14;2.40;;;1.40;;
12367;SDS011;6248;49.812;6.620;2023-05-10T12:52:41;3.13;;;1.50;;
12367;SDS011;6248;49.812;6.620;2023-05-10T12:55:08;1.13;;;1.00;;
12367;SDS011;6248;49.812;6.620;2023-05-10T12:57:35;3.53;;;1.38;;
12367;SDS011;6248;49.812;6.620;2023-05-10T13:00:02;2.75;;;1.10;;
12367;SDS011;6248;49.812;6.620;2023-05-10T13:02:31;3.08;;;1.10;;
12367;SDS011;6248;49.812;6.620;2023-05-10T13:04:58;2.88;;;1.17;;
12367;SDS011;6248;49.812;6.620;2023-05-10T13:07:26;5.28;;;1.63;;
12367;SDS011;6248;49.812;6.620;2023-05-10T13:09:53;2.45;;;1.30;;
12367;SDS011;6248;49.812;6.620;2023-05-10T13:12:20;2.15;;;1.30;;
12367;SDS011;6248;49.812;6.620;2023-05-10T13:14:47;5.00;;;1.30;;
12367;SDS011;6248;49.812;6.620;2023-05-10T13:17:14;3.92;;;1.40;;
12367;SDS011;6248;49.812;6.620;2023-05-10T13:19:42;4.25;;;1.58;;
12367;SDS011;6248;49.812;6.620;2023-05-10T13:22:10;1.85;;;1.48;;
12367;SDS011;6248;49.812;6.620;2023-05-10T13:24:37;1.95;;;1.20;;
12367;SDS011;6248;49.812;6.620;2023-05-10T13:27:04;2.63;;;1.40;;
12367;SDS011;6248;49.812;6.620;2023-05-10T13:29:31;4.47;;;1.33;;
12367;SDS011;6248;49.812;6.620;2023-05-10T13:31:58;3.40;;;1.48;;
12367;SDS011;6248;49.812;6.620;2023-05-10T13:34:25;2.80;;;1.20;;
12367;SDS011;6248;49.812;6.620;2023-05-10T13:36:54;2.15;;;1.42;;
12367;SDS011;6248;49.812;6.620;2023-05-10T13:39:21;2.65;;;1.35;;
12367;SDS011;6248;49.812;6.620;2023-05-10T13:41:49;4.72;;;1.70;;
12367;SDS011;6248;49.812;6.620;2023-05-10T13:44:16;5.28;;;2.17;;
12367;SDS011;6248;49.812;6.620;2023-05-10T13:46:43;3.75;;;1.40;;
12367;SDS011;6248;49.812;6.620;2023-05-10T13:49:10;1.92;;;1.45;;
12367;SDS011;6248;49.812;6.620;2023-05-10T13:51:37;2.00;;;1.40;;
12367;SDS011;6248;49.812;6.620;2023-05-10T13:54:05;1.95;;;1.50;;
12367;SDS011;6248;49.812;6.620;2023-05-10T13:56:33;3.58;;;1.60;;
12367;SDS011;6248;49.812;6.620;2023-05-10T13:59:00;2.33;;;1.40;;
12367;SDS011;6248;49.812;6.620;2023-05-10T14:01:27;3.78;;;1.25;;
12367;SDS011;6248;49.812;6.620;2023-05-10T14:03:54;1.83;;;1.20;;
12367;SDS011;6248;49.812;6.620;2023-05-10T14:06:21;2.50;;;1.48;;
12367;SDS011;6248;49.812;6.620;2023-05-10T14:08:48;2.22;;;1.50;;
12367;SDS011;6248;49.812;6.620;2023-05-10T14:11:16;3.15;;;1.60;;
12367;SDS011;6248;49.812;6.620;2023-05-10T14:13:44;3.13;;;1.23;;
12367;SDS011;6248;49.812;6.620;2023-05-10T14:16:11;4.80;;;1.65;;
12367;SDS011;6248;49.812;6.620;2023-05-10T14:18:39;3.08;;;1.55;;
12367;SDS011;6248;49.812;6.620;2023-05-10T14:21:06;2.60;;;1.00;;
12367;SDS011;6248;49.812;6.620;2023-05-10T14:23:33;2.10;;;1.33;;
12367;SDS011;6248;49.812;6.620;2023-05-10T14:26:00;1.67;;;1.00;;
12367;SDS011;6248;49.812;6.620;2023-05-10T14:28:29;2.53;;;1.50;;
12367;SDS011;6248;49.812;6.620;2023-05-10T14:30:56;2.17;;;1.25;;
12367;SDS011;6248;49.812;6.620;2023-05-10T14:33:23;2.05;;;1.10;;
12367;SDS011;6248;49.812;6.620;2023-05-10T14:35:51;0.80;;;0.80;;
12367;SDS011;6248;49.812;6.620;2023-05-10T14:38:18;1.25;;;1.10;;
12367;SDS011;6248;49.812;6.620;2023-05-10T14:40:45;2.58;;;0.90;;
12367;SDS011;6248;49.812;6.620;2023-05-10T14:43:12;2.70;;;1.08;;
12367;SDS011;6248;49.812;6.620;2023-05-10T14:45:40;2.90;;;1.08;;
12367;SDS011;6248;49.812;6.620;2023-05-10T14:48:07;3.30;;;1.33;;
12367;SDS011;6248;49.812;6.620;2023-05-10T14:50:40;1.20;;;1.00;;
12367;SDS011;6248;49.812;6.620;2023-05-10T14:53:07;2.15;;;1.13;;
12367;SDS011;6248;49.812;6.620;2023-05-10T14:55:34;2.08;;;1.02;;
12367;SDS011;6248;49.812;6.620;2023-05-10T14:58:02;2.38;;;1.08;;
12367;SDS011;6248;49.812;6.620;2023-05-10T15:00:29;2.63;;;1.00;;
12367;SDS011;6248;49.812;6.620;2023-05-10T15:02:57;2.17;;;1.23;;
12367;SDS011;6248;49.812;6.620;2023-05-10T15:05:24;2.22;;;0.98;;
12367;SDS011;6248;49.812;6.620;2023-05-10T15:07:51;1.73;;;0.73;;
12367;SDS011;6248;49.812;6.620;2023-05-10T15:10:18;2.72;;;1.00;;
12367;SDS011;6248;49.812;6.620;2023-05-10T15:12:46;1.70;;;0.93;;